Flight Track Log - Related Links

Times and Time Zones

All times are in EDT time to prevent confusion due to time zone crossing. See the SKW4740 flight status page for this flight to view local times or setup timezone preferences in your user account.

Time Position Orientation Groundspeed Altitude Reporting Facility
EDT Latitude Longitude Course Direction KTS MPH feet Rate Location/Type
Tue 10:20:02 AM 46.8756 -96.7550 98° East 189 217 3,200  Level Minneapolis Center
Tue 10:21:04 AM 46.8428 -96.6647 118° Southeast 242 278 5,500 2,613 Climbing Minneapolis Center
Tue 10:22:00 AM 46.6814 -96.3691 113° Southeast  Level Estimated
Tue 10:22:06 AM 46.8400 -96.5486 92° East 283 326 8,600  Level Minneapolis Center
Tue 10:23:00 AM 46.6213 -96.2580 119° Southeast  Level Estimated
Tue 10:23:08 AM 46.8414 -96.4356 89° East 292 336 11,000  Level Minneapolis Center
Tue 10:24:00 AM 46.5611 -96.1472 119° Southeast  Level Estimated
Tue 10:24:10 AM 46.8264 -96.3064 100° East 308 354 13,200  Level Minneapolis Center
Tue 10:25:00 AM 46.5468 -96.0076 98° East  Level FlightAware Approximate
Tue 10:25:12 AM 46.7878 -96.1861 115° Southeast 320 368 15,400  Level Minneapolis Center
Tue 10:26:14 AM 46.7392 -96.0658 120° Southeast 327 376 17,200 1,548 Climbing Minneapolis Center
Tue 10:27:16 AM 46.6944 -95.9567 121° Southeast 335 386 18,600 1,403 Climbing Minneapolis Center
Tue 10:28:18 AM 46.6483 -95.8403 120° Southeast 340 391 20,100 1,597 Climbing Minneapolis Center
Tue 10:29:20 AM 46.5894 -95.6925 120° Southeast 352 405 21,900 1,355 Climbing Minneapolis Center
Tue 10:30:22 AM 46.5386 -95.5686 121° Southeast 356 410 22,900 532 Climbing Minneapolis Center
Tue 10:31:24 AM 46.4872 -95.4417 120° Southeast 383 441 23,000 48 Climbing Minneapolis Center
Tue 10:32:26 AM 46.4300 -95.3078 122° Southeast 392 451 23,000  Level Minneapolis Center
Tue 10:33:28 AM 46.3503 -95.1533 127° Southeast 399 459 23,000  Level Minneapolis Center
Tue 10:34:30 AM 46.2847 -95.0233 126° Southeast 401 461 23,000  Level Minneapolis Center
Tue 10:35:32 AM 46.2186 -94.8939 126° Southeast 401 461 23,000  Level Minneapolis Center
Tue 10:36:34 AM 46.1564 -94.7728 127° Southeast 401 461 23,000  Level Minneapolis Center
Tue 10:37:36 AM 46.0778 -94.6178 126° Southeast 400 460 23,000  Level Minneapolis Center
Tue 10:39:40 AM 45.9453 -94.3636 127° Southeast 398 458 23,000  Level Minneapolis Center
Tue 10:40:42 AM 45.8778 -94.2342 127° Southeast 404 465 23,000  Level Minneapolis Center
Tue 10:41:44 AM 45.8125 -94.1069 126° Southeast 399 459 23,000  Level Minneapolis Center
Tue 10:42:46 AM 45.7450 -93.9797 127° Southeast 402 463 23,000  Level Minneapolis Center
Tue 10:43:48 AM 45.6639 -93.8264 127° Southeast 404 465 23,000  Level Minneapolis Center
Tue 10:44:50 AM 45.5964 -93.6983 127° Southeast 403 464 23,000 -1,016 Level Minneapolis Center
Tue 10:45:52 AM 45.5222 -93.5764 131° Southeast 410 472 20,900 -2,468 Descending Minneapolis Center
Tue 10:46:54 AM 45.4164 -93.5167 158° South 408 470 17,900 -2,855 Descending Minneapolis Center
Tue 10:47:56 AM 45.3150 -93.4636 160° South 385 443 15,000 -2,855 Descending Minneapolis Center
Tue 10:48:58 AM 45.2192 -93.4131 160° South 368 423 12,000 -2,371 Descending Minneapolis Center
Tue 10:50:00 AM 45.1164 -93.3581 159° South 321 369 10,100 -1,694 Descending Minneapolis Center
Tue 10:51:02 AM 45.0442 -93.3194 159° South 282 325 8,500 -1,016 Descending Minneapolis Center
Tue 10:52:04 AM 44.9942 -93.2486 135° Southeast 267 307 8,000 -339 Descending Minneapolis Center
Tue 10:53:06 AM 44.9567 -93.1547 119° Southeast 272 313 7,800 -871 Descending Minneapolis Center
Tue 10:54:08 AM 44.9222 -93.0661 119° Southeast 256 295 6,200 -1,790 Descending Minneapolis Center
Tue 10:55:10 AM 44.8856 -92.9797 121° Southeast 255 293 4,100 -1,306 Descending Minneapolis Center
Tue 10:56:12 AM 44.8386 -93.0111 205° Southwest 216 249 3,500 -581 Descending Minneapolis Center

Login

Don't have an account? Register now (free) for customized features, flight alerts, and more!